sensor_id;sensor_type;location;lat;lon;timestamp;temperature;humidity
13598;DHT22;38563;54.258;12.574;2022-09-02T00:00:49;9.30;99.90
13598;DHT22;38563;54.258;12.574;2022-09-02T00:03:16;9.20;99.90
13598;DHT22;38563;54.258;12.574;2022-09-02T00:05:43;9.20;99.90
13598;DHT22;38563;54.258;12.574;2022-09-02T00:08:10;9.20;99.90
13598;DHT22;38563;54.258;12.574;2022-09-02T00:10:39;9.10;99.90
13598;DHT22;38563;54.258;12.574;2022-09-02T00:13:07;9.10;99.90
13598;DHT22;38563;54.258;12.574;2022-09-02T00:15:34;9.10;99.90
13598;DHT22;38563;54.258;12.574;2022-09-02T00:18:03;9.10;99.90
13598;DHT22;38563;54.258;12.574;2022-09-02T00:20:31;9.00;99.90
13598;DHT22;38563;54.258;12.574;2022-09-02T00:22:58;9.20;99.90
13598;DHT22;38563;54.258;12.574;2022-09-02T00:25:25;9.20;99.90
13598;DHT22;38563;54.258;12.574;2022-09-02T00:27:52;9.20;99.90
13598;DHT22;38563;54.258;12.574;2022-09-02T00:30:18;9.20;99.90
13598;DHT22;38563;54.258;12.574;2022-09-02T00:32:45;9.10;99.90
13598;DHT22;38563;54.258;12.574;2022-09-02T00:35:13;9.10;99.90
13598;DHT22;38563;54.258;12.574;2022-09-02T00:37:40;9.20;99.90
13598;DHT22;38563;54.258;12.574;2022-09-02T00:40:08;9.10;99.90
13598;DHT22;38563;54.258;12.574;2022-09-02T00:42:36;9.10;99.90
13598;DHT22;38563;54.258;12.574;2022-09-02T00:45:05;9.10;99.90
13598;DHT22;38563;54.258;12.574;2022-09-02T00:47:32;9.20;99.90
13598;DHT22;38563;54.258;12.574;2022-09-02T00:50:00;9.10;99.90
13598;DHT22;38563;54.258;12.574;2022-09-02T00:52:33;9.10;99.90
13598;DHT22;38563;54.258;12.574;2022-09-02T00:55:04;9.10;99.90
13598;DHT22;38563;54.258;12.574;2022-09-02T00:57:33;9.10;99.90
13598;DHT22;38563;54.258;12.574;2022-09-02T01:00:07;9.10;99.90
13598;DHT22;38563;54.258;12.574;2022-09-02T01:02:34;9.00;99.90
13598;DHT22;38563;54.258;12.574;2022-09-02T01:05:04;8.90;99.90
13598;DHT22;38563;54.258;12.574;2022-09-02T01:07:34;8.90;99.90
13598;DHT22;38563;54.258;12.574;2022-09-02T01:10:04;8.90;99.90
13598;DHT22;38563;54.258;12.574;2022-09-02T01:12:32;8.80;99.90
13598;DHT22;38563;54.258;12.574;2022-09-02T01:15:00;8.80;99.90
13598;DHT22;38563;54.258;12.574;2022-09-02T01:17:28;8.70;99.90
13598;DHT22;38563;54.258;12.574;2022-09-02T01:20:03;8.70;99.90
13598;DHT22;38563;54.258;12.574;2022-09-02T01:22:33;8.70;99.90
13598;DHT22;38563;54.258;12.574;2022-09-02T01:25:03;8.70;99.90
13598;DHT22;38563;54.258;12.574;2022-09-02T01:27:31;8.70;99.90
13598;DHT22;38563;54.258;12.574;2022-09-02T01:29:59;8.60;99.90
13598;DHT22;38563;54.258;12.574;2022-09-02T01:32:28;8.60;99.90
13598;DHT22;38563;54.258;12.574;2022-09-02T01:34:55;8.50;99.90
13598;DHT22;38563;54.258;12.574;2022-09-02T01:37:22;8.50;99.90
13598;DHT22;38563;54.258;12.574;2022-09-02T01:39:52;8.50;99.90
13598;DHT22;38563;54.258;12.574;2022-09-02T01:42:19;8.60;99.90
13598;DHT22;38563;54.258;12.574;2022-09-02T01:44:46;8.60;99.90
13598;DHT22;38563;54.258;12.574;2022-09-02T01:47:20;8.60;99.90
13598;DHT22;38563;54.258;12.574;2022-09-02T01:49:47;8.60;99.90
13598;DHT22;38563;54.258;12.574;2022-09-02T01:52:15;8.50;99.90
13598;DHT22;38563;54.258;12.574;2022-09-02T01:54:42;8.50;99.90
13598;DHT22;38563;54.258;12.574;2022-09-02T01:57:10;8.50;99.90
13598;DHT22;38563;54.258;12.574;2022-09-02T01:59:37;8.50;99.90
13598;DHT22;38563;54.258;12.574;2022-09-02T02:02:04;8.40;99.90
13598;DHT22;38563;54.258;12.574;2022-09-02T02:04:32;8.30;99.90
13598;DHT22;38563;54.258;12.574;2022-09-02T02:06:59;8.30;99.90
13598;DHT22;38563;54.258;12.574;2022-09-02T02:09:26;8.40;99.90
13598;DHT22;38563;54.258;12.574;2022-09-02T02:11:53;8.40;99.90
13598;DHT22;38563;54.258;12.574;2022-09-02T02:14:22;8.40;99.90
13598;DHT22;38563;54.258;12.574;2022-09-02T02:16:49;8.40;99.90
13598;DHT22;38563;54.258;12.574;2022-09-02T02:19:17;8.40;99.90
13598;DHT22;38563;54.258;12.574;2022-09-02T02:21:43;8.40;99.90
13598;DHT22;38563;54.258;12.574;2022-09-02T02:24:10;8.30;99.90
13598;DHT22;38563;54.258;12.574;2022-09-02T02:26:37;8.20;99.90
13598;DHT22;38563;54.258;12.574;2022-09-02T02:29:05;8.20;99.90
13598;DHT22;38563;54.258;12.574;2022-09-02T02:31:33;8.10;99.90
13598;DHT22;38563;54.258;12.574;2022-09-02T02:34:00;8.10;99.90
13598;DHT22;38563;54.258;12.574;2022-09-02T02:36:27;8.10;99.90
13598;DHT22;38563;54.258;12.574;2022-09-02T02:38:54;8.10;99.90
13598;DHT22;38563;54.258;12.574;2022-09-02T02:41:22;8.10;99.90
13598;DHT22;38563;54.258;12.574;2022-09-02T02:43:50;8.10;99.90
13598;DHT22;38563;54.258;12.574;2022-09-02T02:46:17;8.10;99.90
13598;DHT22;38563;54.258;12.574;2022-09-02T02:48:45;8.10;99.90
13598;DHT22;38563;54.258;12.574;2022-09-02T02:51:12;8.00;99.90
13598;DHT22;38563;54.258;12.574;2022-09-02T02:53:39;8.00;99.90
13598;DHT22;38563;54.258;12.574;2022-09-02T02:56:07;8.00;99.90
13598;DHT22;38563;54.258;12.574;2022-09-02T02:58:34;7.90;99.90
13598;DHT22;38563;54.258;12.574;2022-09-02T03:01:01;7.90;99.90
13598;DHT22;38563;54.258;12.574;2022-09-02T03:03:29;7.90;99.90
13598;DHT22;38563;54.258;12.574;2022-09-02T03:05:58;7.90;99.90
13598;DHT22;38563;54.258;12.574;2022-09-02T03:08:27;7.90;99.90
13598;DHT22;38563;54.258;12.574;2022-09-02T03:10:55;7.90;99.90
13598;DHT22;38563;54.258;12.574;2022-09-02T03:13:25;8.00;99.90
13598;DHT22;38563;54.258;12.574;2022-09-02T03:15:53;8.10;99.90
13598;DHT22;38563;54.258;12.574;2022-09-02T03:18:21;8.10;99.90
13598;DHT22;38563;54.258;12.574;2022-09-02T03:20:49;8.10;99.90
13598;DHT22;38563;54.258;12.574;2022-09-02T03:23:17;8.10;99.90
13598;DHT22;38563;54.258;12.574;2022-09-02T03:25:48;8.20;99.90
13598;DHT22;38563;54.258;12.574;2022-09-02T03:28:23;8.10;99.90
13598;DHT22;38563;54.258;12.574;2022-09-02T03:30:50;8.10;99.90
13598;DHT22;38563;54.258;12.574;2022-09-02T03:33:17;8.00;99.90
13598;DHT22;38563;54.258;12.574;2022-09-02T03:35:46;8.10;99.90
13598;DHT22;38563;54.258;12.574;2022-09-02T03:38:14;8.00;99.90
13598;DHT22;38563;54.258;12.574;2022-09-02T03:40:42;8.00;99.90
13598;DHT22;38563;54.258;12.574;2022-09-02T03:43:09;7.90;99.90
13598;DHT22;38563;54.258;12.574;2022-09-02T03:45:37;7.90;99.90
13598;DHT22;38563;54.258;12.574;2022-09-02T03:48:11;7.80;99.90
13598;DHT22;38563;54.258;12.574;2022-09-02T03:50:41;7.80;99.90
13598;DHT22;38563;54.258;12.574;2022-09-02T03:53:13;7.80;99.90
13598;DHT22;38563;54.258;12.574;2022-09-02T03:55:42;7.80;99.90
13598;DHT22;38563;54.258;12.574;2022-09-02T03:58:11;7.90;99.90
13598;DHT22;38563;54.258;12.574;2022-09-02T04:00:39;8.00;99.90
13598;DHT22;38563;54.258;12.574;2022-09-02T04:03:06;8.00;99.90
13598;DHT22;38563;54.258;12.574;2022-09-02T04:05:33;8.10;99.90
13598;DHT22;38563;54.258;12.574;2022-09-02T04:08:00;8.10;99.90
13598;DHT22;38563;54.258;12.574;2022-09-02T04:10:28;8.10;99.90
13598;DHT22;38563;54.258;12.574;2022-09-02T04:12:56;8.00;99.90
13598;DHT22;38563;54.258;12.574;2022-09-02T04:15:23;7.90;99.90
13598;DHT22;38563;54.258;12.574;2022-09-02T04:17:50;7.80;99.90
13598;DHT22;38563;54.258;12.574;2022-09-02T04:20:19;7.80;99.90
13598;DHT22;38563;54.258;12.574;2022-09-02T04:22:47;7.80;99.90
13598;DHT22;38563;54.258;12.574;2022-09-02T04:25:15;7.80;99.90
13598;DHT22;38563;54.258;12.574;2022-09-02T04:27:43;7.80;99.90
13598;DHT22;38563;54.258;12.574;2022-09-02T04:30:12;7.80;99.90
13598;DHT22;38563;54.258;12.574;2022-09-02T04:32:42;7.90;99.90
13598;DHT22;38563;54.258;12.574;2022-09-02T04:35:09;7.90;99.90
13598;DHT22;38563;54.258;12.574;2022-09-02T04:37:37;7.90;99.90
13598;DHT22;38563;54.258;12.574;2022-09-02T04:40:04;7.90;99.90
13598;DHT22;38563;54.258;12.574;2022-09-02T04:42:32;7.90;99.90
13598;DHT22;38563;54.258;12.574;2022-09-02T04:44:59;7.90;99.90
13598;DHT22;38563;54.258;12.574;2022-09-02T04:47:27;7.90;99.90
13598;DHT22;38563;54.258;12.574;2022-09-02T04:49:56;7.90;99.90
13598;DHT22;38563;54.258;12.574;2022-09-02T04:52:23;7.90;99.90
13598;DHT22;38563;54.258;12.574;2022-09-02T04:54:50;8.00;99.90
13598;DHT22;38563;54.258;12.574;2022-09-02T04:57:17;8.00;99.90
13598;DHT22;38563;54.258;12.574;2022-09-02T04:59:45;8.00;99.90
13598;DHT22;38563;54.258;12.574;2022-09-02T05:02:13;8.10;99.90
13598;DHT22;38563;54.258;12.574;2022-09-02T05:04:41;8.20;99.90
13598;DHT22;38563;54.258;12.574;2022-09-02T05:07:16;8.20;99.90
13598;DHT22;38563;54.258;12.574;2022-09-02T05:09:46;8.20;99.90
13598;DHT22;38563;54.258;12.574;2022-09-02T05:12:13;8.30;99.90
13598;DHT22;38563;54.258;12.574;2022-09-02T05:14:48;8.40;99.90
13598;DHT22;38563;54.258;12.574;2022-09-02T05:17:17;8.50;99.90
13598;DHT22;38563;54.258;12.574;2022-09-02T05:19:47;8.50;99.90
13598;DHT22;38563;54.258;12.574;2022-09-02T05:22:15;8.50;99.90
13598;DHT22;38563;54.258;12.574;2022-09-02T05:24:43;8.50;99.90
13598;DHT22;38563;54.258;12.574;2022-09-02T05:27:12;8.50;99.90
13598;DHT22;38563;54.258;12.574;2022-09-02T05:29:40;8.60;99.90
13598;DHT22;38563;54.258;12.574;2022-09-02T05:32:08;8.70;99.90
13598;DHT22;38563;54.258;12.574;2022-09-02T05:34:37;8.80;99.90
13598;DHT22;38563;54.258;12.574;2022-09-02T05:37:05;9.00;99.90
13598;DHT22;38563;54.258;12.574;2022-09-02T05:39:34;9.10;99.90
13598;DHT22;38563;54.258;12.574;2022-09-02T05:42:00;9.20;99.90
13598;DHT22;38563;54.258;12.574;2022-09-02T05:44:27;9.40;99.90
13598;DHT22;38563;54.258;12.574;2022-09-02T05:46:56;9.60;99.90
13598;DHT22;38563;54.258;12.574;2022-09-02T05:49:23;9.80;99.90
13598;DHT22;38563;54.258;12.574;2022-09-02T05:52:06;9.90;99.90
13598;DHT22;38563;54.258;12.574;2022-09-02T05:54:40;10.00;99.90
13598;DHT22;38563;54.258;12.574;2022-09-02T05:57:11;10.20;99.90
13598;DHT22;38563;54.258;12.574;2022-09-02T05:59:43;10.40;99.90
13598;DHT22;38563;54.258;12.574;2022-09-02T06:02:15;10.50;99.90
13598;DHT22;38563;54.258;12.574;2022-09-02T06:04:45;10.60;99.90
13598;DHT22;38563;54.258;12.574;2022-09-02T06:07:15;10.70;99.90
13598;DHT22;38563;54.258;12.574;2022-09-02T06:09:44;10.80;99.90
13598;DHT22;38563;54.258;12.574;2022-09-02T06:12:13;10.90;99.90
13598;DHT22;38563;54.258;12.574;2022-09-02T06:14:41;11.00;99.90
13598;DHT22;38563;54.258;12.574;2022-09-02T06:17:09;11.10;99.90
13598;DHT22;38563;54.258;12.574;2022-09-02T06:19:43;11.20;99.90
13598;DHT22;38563;54.258;12.574;2022-09-02T06:22:10;11.30;99.90
13598;DHT22;38563;54.258;12.574;2022-09-02T06:24:39;11.50;99.90
13598;DHT22;38563;54.258;12.574;2022-09-02T06:27:11;11.70;99.90
13598;DHT22;38563;54.258;12.574;2022-09-02T06:29:42;11.90;99.90
13598;DHT22;38563;54.258;12.574;2022-09-02T06:32:09;12.00;99.90
13598;DHT22;38563;54.258;12.574;2022-09-02T06:34:36;12.20;99.90
13598;DHT22;38563;54.258;12.574;2022-09-02T06:37:03;12.30;99.90
13598;DHT22;38563;54.258;12.574;2022-09-02T06:39:35;12.30;99.90
13598;DHT22;38563;54.258;12.574;2022-09-02T06:42:05;12.40;99.90
13598;DHT22;38563;54.258;12.574;2022-09-02T06:44:43;12.50;99.90
13598;DHT22;38563;54.258;12.574;2022-09-02T06:47:09;12.60;99.90
13598;DHT22;38563;54.258;12.574;2022-09-02T06:49:37;12.80;99.90
13598;DHT22;38563;54.258;12.574;2022-09-02T06:52:04;12.90;99.90
13598;DHT22;38563;54.258;12.574;2022-09-02T06:54:35;13.00;99.90
13598;DHT22;38563;54.258;12.574;2022-09-02T06:57:12;13.20;99.90
13598;DHT22;38563;54.258;12.574;2022-09-02T06:59:39;13.40;99.90
13598;DHT22;38563;54.258;12.574;2022-09-02T07:02:05;13.60;99.90
13598;DHT22;38563;54.258;12.574;2022-09-02T07:04:34;13.70;99.90
13598;DHT22;38563;54.258;12.574;2022-09-02T07:07:20;13.90;99.90
13598;DHT22;38563;54.258;12.574;2022-09-02T07:09:53;14.10;99.90
13598;DHT22;38563;54.258;12.574;2022-09-02T07:12:22;14.30;99.90
13598;DHT22;38563;54.258;12.574;2022-09-02T07:14:57;14.50;99.90
13598;DHT22;38563;54.258;12.574;2022-09-02T07:17:29;14.60;99.90
13598;DHT22;38563;54.258;12.574;2022-09-02T07:20:01;14.70;99.90
13598;DHT22;38563;54.258;12.574;2022-09-02T07:22:34;14.90;99.90
13598;DHT22;38563;54.258;12.574;2022-09-02T07:25:01;14.90;99.90
13598;DHT22;38563;54.258;12.574;2022-09-02T07:27:31;15.00;99.90
13598;DHT22;38563;54.258;12.574;2022-09-02T07:29:58;15.10;99.90
13598;DHT22;38563;54.258;12.574;2022-09-02T07:32:26;15.20;99.90
13598;DHT22;38563;54.258;12.574;2022-09-02T07:34:53;15.30;99.90
13598;DHT22;38563;54.258;12.574;2022-09-02T07:37:20;15.40;99.90
13598;DHT22;38563;54.258;12.574;2022-09-02T07:39:47;15.50;99.90
13598;DHT22;38563;54.258;12.574;2022-09-02T07:42:15;15.60;99.90
13598;DHT22;38563;54.258;12.574;2022-09-02T07:44:44;15.70;99.90
13598;DHT22;38563;54.258;12.574;2022-09-02T07:47:11;15.90;99.90
13598;DHT22;38563;54.258;12.574;2022-09-02T07:49:42;15.80;99.90
13598;DHT22;38563;54.258;12.574;2022-09-02T07:52:09;15.90;99.90
13598;DHT22;38563;54.258;12.574;2022-09-02T07:54:36;16.10;99.90
13598;DHT22;38563;54.258;12.574;2022-09-02T07:57:03;16.20;99.90
13598;DHT22;38563;54.258;12.574;2022-09-02T07:59:32;16.20;99.90
13598;DHT22;38563;54.258;12.574;2022-09-02T08:02:02;16.30;99.90
13598;DHT22;38563;54.258;12.574;2022-09-02T08:04:28;16.30;99.90
13598;DHT22;38563;54.258;12.574;2022-09-02T08:06:55;16.50;99.90
13598;DHT22;38563;54.258;12.574;2022-09-02T08:09:22;16.60;99.90
13598;DHT22;38563;54.258;12.574;2022-09-02T08:11:50;16.60;99.90
13598;DHT22;38563;54.258;12.574;2022-09-02T08:14:20;16.70;99.90
13598;DHT22;38563;54.258;12.574;2022-09-02T08:16:49;16.80;99.90
13598;DHT22;38563;54.258;12.574;2022-09-02T08:19:17;16.90;99.90
13598;DHT22;38563;54.258;12.574;2022-09-02T08:21:44;17.00;99.90
13598;DHT22;38563;54.258;12.574;2022-09-02T08:24:11;17.10;99.90
13598;DHT22;38563;54.258;12.574;2022-09-02T08:26:37;17.10;99.90
13598;DHT22;38563;54.258;12.574;2022-09-02T08:29:05;17.10;99.90
13598;DHT22;38563;54.258;12.574;2022-09-02T08:31:32;17.30;99.90
13598;DHT22;38563;54.258;12.574;2022-09-02T08:33:59;17.40;99.90
13598;DHT22;38563;54.258;12.574;2022-09-02T08:36:27;17.50;99.90
13598;DHT22;38563;54.258;12.574;2022-09-02T08:38:54;17.40;99.90
13598;DHT22;38563;54.258;12.574;2022-09-02T08:41:23;17.50;99.90
13598;DHT22;38563;54.258;12.574;2022-09-02T08:43:52;17.60;99.90
13598;DHT22;38563;54.258;12.574;2022-09-02T08:46:21;17.60;99.90
13598;DHT22;38563;54.258;12.574;2022-09-02T08:48:52;17.60;99.90
13598;DHT22;38563;54.258;12.574;2022-09-02T08:51:25;17.60;99.90
13598;DHT22;38563;54.258;12.574;2022-09-02T08:54:01;17.60;99.90
13598;DHT22;38563;54.258;12.574;2022-09-02T08:56:30;17.70;99.90
13598;DHT22;38563;54.258;12.574;2022-09-02T08:58:56;17.80;99.90
13598;DHT22;38563;54.258;12.574;2022-09-02T09:01:35;17.80;99.90
13598;DHT22;38563;54.258;12.574;2022-09-02T09:04:17;17.90;99.90
13598;DHT22;38563;54.258;12.574;2022-09-02T09:07:10;17.90;99.90
13598;DHT22;38563;54.258;12.574;2022-09-02T09:09:48;17.80;99.90
13598;DHT22;38563;54.258;12.574;2022-09-02T09:12:22;17.80;99.90
13598;DHT22;38563;54.258;12.574;2022-09-02T09:14:56;18.20;99.90
13598;DHT22;38563;54.258;12.574;2022-09-02T09:17:27;18.60;99.90
13598;DHT22;38563;54.258;12.574;2022-09-02T09:19:58;18.70;99.90
13598;DHT22;38563;54.258;12.574;2022-09-02T09:22:30;18.80;99.90
13598;DHT22;38563;54.258;12.574;2022-09-02T09:24:58;18.90;99.90
13598;DHT22;38563;54.258;12.574;2022-09-02T09:27:25;18.80;99.90
13598;DHT22;38563;54.258;12.574;2022-09-02T09:29:52;18.80;99.90
13598;DHT22;38563;54.258;12.574;2022-09-02T09:32:24;18.90;99.90
13598;DHT22;38563;54.258;12.574;2022-09-02T09:35:00;18.90;99.90
13598;DHT22;38563;54.258;12.574;2022-09-02T09:37:33;18.80;99.90
13598;DHT22;38563;54.258;12.574;2022-09-02T09:40:23;18.80;99.90
13598;DHT22;38563;54.258;12.574;2022-09-02T09:42:54;18.90;99.90
13598;DHT22;38563;54.258;12.574;2022-09-02T09:45:26;18.90;99.90
13598;DHT22;38563;54.258;12.574;2022-09-02T09:48:24;19.00;99.90
13598;DHT22;38563;54.258;12.574;2022-09-02T09:51:10;19.00;99.90
13598;DHT22;38563;54.258;12.574;2022-09-02T09:53:38;19.10;99.90
13598;DHT22;38563;54.258;12.574;2022-09-02T09:56:26;19.00;99.90
13598;DHT22;38563;54.258;12.574;2022-09-02T09:58:54;19.10;99.90
13598;DHT22;38563;54.258;12.574;2022-09-02T10:01:23;19.00;99.90
13598;DHT22;38563;54.258;12.574;2022-09-02T10:03:52;19.00;99.90
13598;DHT22;38563;54.258;12.574;2022-09-02T10:06:21;19.00;99.90
13598;DHT22;38563;54.258;12.574;2022-09-02T10:08:53;19.20;99.90
13598;DHT22;38563;54.258;12.574;2022-09-02T10:11:24;19.10;99.90
13598;DHT22;38563;54.258;12.574;2022-09-02T10:13:57;19.30;99.90
13598;DHT22;38563;54.258;12.574;2022-09-02T10:16:33;19.40;99.90
13598;DHT22;38563;54.258;12.574;2022-09-02T10:19:10;19.50;99.90
13598;DHT22;38563;54.258;12.574;2022-09-02T10:21:54;19.50;99.90
13598;DHT22;38563;54.258;12.574;2022-09-02T10:24:43;19.40;99.90
13598;DHT22;38563;54.258;12.574;2022-09-02T10:27:23;19.40;99.90
13598;DHT22;38563;54.258;12.574;2022-09-02T10:29:54;19.30;99.90
13598;DHT22;38563;54.258;12.574;2022-09-02T10:32:46;19.50;99.90
13598;DHT22;38563;54.258;12.574;2022-09-02T10:35:23;19.60;99.90
13598;DHT22;38563;54.258;12.574;2022-09-02T10:37:59;19.60;99.90
13598;DHT22;38563;54.258;12.574;2022-09-02T10:40:35;19.60;99.90
13598;DHT22;38563;54.258;12.574;2022-09-02T10:43:09;19.70;99.90
13598;DHT22;38563;54.258;12.574;2022-09-02T10:45:41;19.70;99.90
13598;DHT22;38563;54.258;12.574;2022-09-02T10:48:23;20.00;99.90
13598;DHT22;38563;54.258;12.574;2022-09-02T10:50:55;20.10;99.90
13598;DHT22;38563;54.258;12.574;2022-09-02T10:53:33;20.10;99.90
13598;DHT22;38563;54.258;12.574;2022-09-02T10:56:05;20.20;99.90
13598;DHT22;38563;54.258;12.574;2022-09-02T10:58:41;20.30;99.90
13598;DHT22;38563;54.258;12.574;2022-09-02T11:01:13;20.10;99.90
13598;DHT22;38563;54.258;12.574;2022-09-02T11:03:53;20.10;99.90
13598;DHT22;38563;54.258;12.574;2022-09-02T11:06:27;20.20;99.90
13598;DHT22;38563;54.258;12.574;2022-09-02T11:08:57;20.20;99.90
13598;DHT22;38563;54.258;12.574;2022-09-02T11:11:29;19.90;99.90
13598;DHT22;38563;54.258;12.574;2022-09-02T11:14:05;19.80;99.90
13598;DHT22;38563;54.258;12.574;2022-09-02T11:16:38;20.00;99.90
13598;DHT22;38563;54.258;12.574;2022-09-02T11:19:09;20.30;99.90
13598;DHT22;38563;54.258;12.574;2022-09-02T11:21:49;20.20;99.90
13598;DHT22;38563;54.258;12.574;2022-09-02T11:24:21;20.10;99.90
13598;DHT22;38563;54.258;12.574;2022-09-02T11:26:55;20.10;99.90
13598;DHT22;38563;54.258;12.574;2022-09-02T11:29:33;20.00;99.90
13598;DHT22;38563;54.258;12.574;2022-09-02T11:32:09;20.10;99.90
13598;DHT22;38563;54.258;12.574;2022-09-02T11:34:40;20.10;99.90
13598;DHT22;38563;54.258;12.574;2022-09-02T11:37:11;20.20;99.90
13598;DHT22;38563;54.258;12.574;2022-09-02T11:39:42;20.10;99.90
13598;DHT22;38563;54.258;12.574;2022-09-02T11:42:25;19.90;99.90
13598;DHT22;38563;54.258;12.574;2022-09-02T11:48:08;20.00;99.90
13598;DHT22;38563;54.258;12.574;2022-09-02T11:50:50;20.20;99.90
13598;DHT22;38563;54.258;12.574;2022-09-02T11:53:22;20.20;99.90
13598;DHT22;38563;54.258;12.574;2022-09-02T11:55:52;20.30;99.90
13598;DHT22;38563;54.258;12.574;2022-09-02T11:58:35;20.30;99.90
13598;DHT22;38563;54.258;12.574;2022-09-02T12:01:29;20.30;99.90
13598;DHT22;38563;54.258;12.574;2022-09-02T12:04:04;20.30;99.90
13598;DHT22;38563;54.258;12.574;2022-09-02T12:06:32;20.10;99.90
13598;DHT22;38563;54.258;12.574;2022-09-02T12:09:07;20.10;99.90
13598;DHT22;38563;54.258;12.574;2022-09-02T12:11:48;19.90;99.90
13598;DHT22;38563;54.258;12.574;2022-09-02T12:17:37;19.50;99.90
13598;DHT22;38563;54.258;12.574;2022-09-02T12:20:08;19.50;99.90
13598;DHT22;38563;54.258;12.574;2022-09-02T12:22:37;19.50;99.90
13598;DHT22;38563;54.258;12.574;2022-09-02T12:25:40;19.80;99.90
13598;DHT22;38563;54.258;12.574;2022-09-02T12:28:26;20.30;99.90
13598;DHT22;38563;54.258;12.574;2022-09-02T12:31:14;20.90;99.90
13598;DHT22;38563;54.258;12.574;2022-09-02T12:33:44;21.20;99.90
13598;DHT22;38563;54.258;12.574;2022-09-02T12:36:45;21.30;99.90
13598;DHT22;38563;54.258;12.574;2022-09-02T12:39:44;21.50;99.90
13598;DHT22;38563;54.258;12.574;2022-09-02T12:42:20;21.50;99.90
13598;DHT22;38563;54.258;12.574;2022-09-02T12:44:55;21.40;99.90
13598;DHT22;38563;54.258;12.574;2022-09-02T12:47:32;21.40;99.90
13598;DHT22;38563;54.258;12.574;2022-09-02T12:50:03;21.40;99.90
13598;DHT22;38563;54.258;12.574;2022-09-02T12:52:43;21.40;99.90
13598;DHT22;38563;54.258;12.574;2022-09-02T12:55:15;21.80;99.90
13598;DHT22;38563;54.258;12.574;2022-09-02T12:57:45;22.00;99.90
13598;DHT22;38563;54.258;12.574;2022-09-02T13:00:15;21.90;99.90
13598;DHT22;38563;54.258;12.574;2022-09-02T13:02:51;21.90;99.90
13598;DHT22;38563;54.258;12.574;2022-09-02T13:05:25;21.80;99.90
13598;DHT22;38563;54.258;12.574;2022-09-02T13:08:11;21.90;99.90
13598;DHT22;38563;54.258;12.574;2022-09-02T13:11:27;21.50;99.90
13598;DHT22;38563;54.258;12.574;2022-09-02T13:14:33;21.40;99.90
13598;DHT22;38563;54.258;12.574;2022-09-02T13:17:20;21.30;99.90
13598;DHT22;38563;54.258;12.574;2022-09-02T13:20:17;21.00;99.90
13598;DHT22;38563;54.258;12.574;2022-09-02T13:23:19;21.10;99.90
13598;DHT22;38563;54.258;12.574;2022-09-02T13:26:16;20.70;99.90
13598;DHT22;38563;54.258;12.574;2022-09-02T13:29:16;20.70;99.90
13598;DHT22;38563;54.258;12.574;2022-09-02T13:31:57;21.40;99.90
13598;DHT22;38563;54.258;12.574;2022-09-02T13:34:27;21.80;99.90
13598;DHT22;38563;54.258;12.574;2022-09-02T13:36:54;22.20;99.90
13598;DHT22;38563;54.258;12.574;2022-09-02T13:39:25;22.40;99.90
13598;DHT22;38563;54.258;12.574;2022-09-02T13:41:53;22.60;99.90
13598;DHT22;38563;54.258;12.574;2022-09-02T13:44:21;22.50;99.90
13598;DHT22;38563;54.258;12.574;2022-09-02T13:46:49;22.60;99.90
13598;DHT22;38563;54.258;12.574;2022-09-02T13:49:22;22.60;99.90
13598;DHT22;38563;54.258;12.574;2022-09-02T13:51:52;22.30;99.90
13598;DHT22;38563;54.258;12.574;2022-09-02T13:54:27;21.90;99.90
13598;DHT22;38563;54.258;12.574;2022-09-02T13:56:55;22.30;99.90
13598;DHT22;38563;54.258;12.574;2022-09-02T13:59:36;22.60;99.90
13598;DHT22;38563;54.258;12.574;2022-09-02T14:02:20;22.70;99.90
13598;DHT22;38563;54.258;12.574;2022-09-02T14:04:49;22.50;99.90
13598;DHT22;38563;54.258;12.574;2022-09-02T14:07:18;22.20;99.90
13598;DHT22;38563;54.258;12.574;2022-09-02T14:09:49;21.80;99.90
13598;DHT22;38563;54.258;12.574;2022-09-02T14:12:17;21.60;99.90
13598;DHT22;38563;54.258;12.574;2022-09-02T14:14:45;22.10;99.90
13598;DHT22;38563;54.258;12.574;2022-09-02T14:17:20;22.50;99.90
13598;DHT22;38563;54.258;12.574;2022-09-02T14:19:48;22.60;99.90
13598;DHT22;38563;54.258;12.574;2022-09-02T14:22:25;22.80;99.90
13598;DHT22;38563;54.258;12.574;2022-09-02T14:24:53;22.40;99.90
13598;DHT22;38563;54.258;12.574;2022-09-02T14:27:22;21.70;99.90
13598;DHT22;38563;54.258;12.574;2022-09-02T14:29:53;21.20;99.90
13598;DHT22;38563;54.258;12.574;2022-09-02T14:32:22;20.70;99.90
13598;DHT22;38563;54.258;12.574;2022-09-02T14:35:10;20.50;99.90
13598;DHT22;38563;54.258;12.574;2022-09-02T14:37:48;20.60;99.90
13598;DHT22;38563;54.258;12.574;2022-09-02T14:40:16;20.80;99.90
13598;DHT22;38563;54.258;12.574;2022-09-02T14:42:48;20.60;99.90
13598;DHT22;38563;54.258;12.574;2022-09-02T14:45:24;21.10;99.90
13598;DHT22;38563;54.258;12.574;2022-09-02T14:47:51;21.70;99.90
13598;DHT22;38563;54.258;12.574;2022-09-02T14:50:22;22.10;99.90
13598;DHT22;38563;54.258;12.574;2022-09-02T14:52:54;22.60;99.90
13598;DHT22;38563;54.258;12.574;2022-09-02T14:55:44;22.40;99.90
13598;DHT22;38563;54.258;12.574;2022-09-02T14:58:11;22.40;99.90
13598;DHT22;38563;54.258;12.574;2022-09-02T15:00:38;22.50;99.90
13598;DHT22;38563;54.258;12.574;2022-09-02T15:03:05;22.60;99.90
13598;DHT22;38563;54.258;12.574;2022-09-02T15:05:32;22.60;99.90
13598;DHT22;38563;54.258;12.574;2022-09-02T15:07:59;22.40;99.90
13598;DHT22;38563;54.258;12.574;2022-09-02T15:10:26;22.30;99.90
13598;DHT22;38563;54.258;12.574;2022-09-02T15:12:55;22.30;99.90
13598;DHT22;38563;54.258;12.574;2022-09-02T15:15:22;22.20;99.90
13598;DHT22;38563;54.258;12.574;2022-09-02T15:17:50;22.00;99.90
13598;DHT22;38563;54.258;12.574;2022-09-02T15:20:16;21.80;99.90
13598;DHT22;38563;54.258;12.574;2022-09-02T15:22:43;21.60;99.90
13598;DHT22;38563;54.258;12.574;2022-09-02T15:25:10;21.40;99.90
13598;DHT22;38563;54.258;12.574;2022-09-02T15:27:36;21.00;99.90
13598;DHT22;38563;54.258;12.574;2022-09-02T15:30:06;20.80;99.90
13598;DHT22;38563;54.258;12.574;2022-09-02T15:32:33;20.50;99.90
13598;DHT22;38563;54.258;12.574;2022-09-02T15:35:00;20.30;99.90
13598;DHT22;38563;54.258;12.574;2022-09-02T15:37:27;20.30;99.90
13598;DHT22;38563;54.258;12.574;2022-09-02T15:39:54;20.30;99.90
13598;DHT22;38563;54.258;12.574;2022-09-02T15:42:21;20.20;99.90
13598;DHT22;38563;54.258;12.574;2022-09-02T15:44:48;20.20;99.90
13598;DHT22;38563;54.258;12.574;2022-09-02T15:47:16;20.00;99.90
13598;DHT22;38563;54.258;12.574;2022-09-02T15:49:42;19.90;99.90
13598;DHT22;38563;54.258;12.574;2022-09-02T15:52:09;19.80;99.90
13598;DHT22;38563;54.258;12.574;2022-09-02T15:54:36;19.80;99.90